SAOC/RCU METAR and TAF weather

Enter ICAO airport designator
Station Type Date Time Source
SAOC METAR 2018/12/15 02:00 UTC NOAA

SAOC 150200Z 00000KT CAVOK 18/05 Q1019


Station Type Date Time Source
SAOC Decoded METAR 2018/12/15 02:00 UTC NOAA

Rio Cuarto Aerodrome, Argentina (SAOC) 33-07S 064-14W 421M
Dec 14, 2018 - 09:00 PM EST / 2018.12.15 0200 UTC
Wind: Calm:0
Visibility: greater than 7 mile(s):0
Temperature: 64 F (18 C)
Dew Point: 41 F (5 C)
Relative Humidity: 42%
Pressure (altimeter): 30.09 in. Hg (1019 hPa)
ob: SAOC 150200Z 00000KT CAVOK 18/05 Q1019
cycle: 2

Station Type Date Time Source
SAOC TAF 2018/12/13 12:03 UTC NOAA

TAF SAOC 131100Z 1312/1412 05015KT 9999 SCT020 FEW040CB TX34/1318Z TN17/1410Z
BECMG 1319/1322 18015KT 5000 TSRA BKN020 FEW040CB


Example: see airport list